Terminal Aerodrome Forecast
Issued by NWS

Home | Current Version | Previous Version | Text Only | Print | Product List | Glossary On
Versions: 1 2 3 4 5 6 7 8 9 10 11 12 13 14 15 16 17 18 19 20 21 22 23 24 25 26 27 28 29 30 31 32 33 34 35 36 37 38 39 40 41
000
FTUS43 KLOT 211400 AAA
TAFORD
TAF AMD
KORD 211409Z 2114/2218 01013G18KT P6SM SCT025 BKN040
      TEMPO 2116/2119 BKN025
     FM211900 03012G18KT P6SM BKN040
     FM220100 04007KT P6SM FEW040
     FM221400 08005KT P6SM SKC=

USA.gov is the U.S. government's official web portal to all federal, state and local government web resources and services.